createdAt,value
2023-01-07T00:01:09.729Z,73.50
2023-01-07T00:04:13.954Z,73.80
2023-01-07T00:07:15.829Z,74.00
2023-01-07T00:10:25.059Z,74.60
2023-01-07T00:13:27.266Z,74.90
2023-01-07T00:16:32.061Z,75.20
2023-01-07T00:19:33.997Z,74.90
2023-01-07T00:22:35.782Z,74.80
2023-01-07T00:25:37.721Z,74.60
2023-01-07T00:28:43.811Z,74.90
2023-01-07T00:31:45.802Z,75.00
2023-01-07T00:34:50.305Z,75.10
2023-01-07T00:37:54.190Z,76.10
2023-01-07T00:40:56.269Z,75.60
2023-01-07T00:43:58.383Z,76.70
2023-01-07T00:47:00.680Z,76.20
2023-01-07T00:50:02.869Z,76.30
2023-01-07T00:53:05.255Z,76.90
2023-01-07T00:56:07.373Z,76.50
2023-01-07T00:59:09.979Z,77.40
2023-01-07T01:02:12.315Z,76.70
2023-01-07T01:05:17.245Z,76.40
2023-01-07T01:08:19.963Z,76.10
2023-01-07T01:11:21.985Z,75.50
2023-01-07T01:14:23.823Z,75.60
2023-01-07T01:17:26.920Z,75.40
2023-01-07T01:20:28.790Z,75.80
2023-01-07T01:23:30.652Z,75.70
2023-01-07T01:26:32.825Z,76.20
2023-01-07T01:29:34.824Z,75.40
2023-01-07T01:32:39.824Z,75.00
2023-01-07T01:35:42.106Z,74.90
2023-01-07T01:38:44.495Z,75.20
2023-01-07T01:41:47.672Z,75.80
2023-01-07T01:44:58.770Z,75.60
2023-01-07T01:48:09.835Z,76.20
2023-01-07T01:51:14.679Z,76.50
2023-01-07T01:54:18.677Z,76.80
2023-01-07T01:57:28.111Z,77.30
2023-01-07T02:00:32.657Z,77.10
2023-01-07T02:03:37.593Z,77.50
2023-01-07T02:06:55.051Z,77.50
2023-01-07T02:10:01.418Z,77.40
2023-01-07T02:13:42.200Z,77.60
2023-01-07T02:17:10.307Z,77.80
2023-01-07T02:20:39.329Z,78.40
2023-01-07T02:24:13.804Z,78.50
2023-01-07T02:27:56.775Z,78.60
2023-01-07T02:31:26.096Z,78.70
2023-01-07T02:34:56.229Z,79.50
2023-01-07T02:38:29.091Z,77.70
2023-01-07T02:41:44.618Z,78.20
2023-01-07T02:45:20.385Z,78.40
2023-01-07T02:48:24.560Z,77.70
2023-01-07T02:51:35.978Z,77.50
2023-01-07T02:54:37.935Z,78.00
2023-01-07T02:58:07.774Z,78.30
2023-01-07T03:01:34.427Z,78.80
2023-01-07T03:05:07.143Z,79.20
2023-01-07T03:08:27.503Z,78.30
2023-01-07T03:11:50.388Z,79.10
2023-01-07T03:15:08.356Z,79.20
2023-01-07T03:18:27.450Z,78.80
2023-01-07T03:21:34.733Z,79.10
2023-01-07T03:24:40.417Z,79.40
2023-01-07T03:27:45.096Z,79.50
2023-01-07T03:30:49.282Z,79.70
2023-01-07T03:34:03.161Z,79.60
2023-01-07T03:37:26.499Z,79.00
2023-01-07T03:40:28.964Z,79.80
2023-01-07T03:43:31.015Z,79.50
2023-01-07T03:46:35.051Z,79.60
2023-01-07T03:49:38.579Z,80.00
2023-01-07T03:52:40.855Z,80.00
2023-01-07T03:55:42.859Z,80.30
2023-01-07T03:58:44.783Z,80.60
2023-01-07T04:01:46.835Z,80.70
2023-01-07T04:04:49.247Z,80.50
2023-01-07T04:07:51.394Z,80.40
2023-01-07T04:10:54.072Z,80.40
2023-01-07T04:13:56.488Z,80.80
2023-01-07T04:16:58.961Z,80.80
2023-01-07T04:20:01.098Z,80.80
2023-01-07T04:23:03.320Z,80.40
2023-01-07T04:26:07.284Z,80.40
2023-01-07T04:29:10.701Z,80.50
2023-01-07T04:32:12.932Z,81.10
2023-01-07T04:35:15.024Z,81.60
2023-01-07T04:38:17.640Z,81.40
2023-01-07T04:41:19.822Z,81.00
2023-01-07T04:44:21.994Z,80.90
2023-01-07T04:47:24.419Z,80.60
2023-01-07T04:50:26.854Z,80.60
2023-01-07T04:53:28.880Z,80.50
2023-01-07T04:56:31.336Z,80.50
2023-01-07T04:59:34.111Z,80.20
2023-01-07T05:02:37.618Z,80.40
2023-01-07T05:05:40.419Z,80.70
2023-01-07T05:08:42.348Z,81.10
2023-01-07T05:11:44.726Z,81.60
2023-01-07T05:14:47.942Z,81.80
2023-01-07T05:17:50.372Z,81.30
2023-01-07T05:20:52.413Z,81.30
2023-01-07T05:23:54.542Z,81.20
2023-01-07T05:26:57.755Z,80.80
2023-01-07T05:29:59.806Z,80.60
2023-01-07T05:33:01.788Z,80.50
2023-01-07T05:36:03.986Z,79.80
2023-01-07T05:39:07.365Z,78.90
2023-01-07T05:42:09.415Z,78.10
2023-01-07T05:45:13.964Z,77.40
2023-01-07T05:48:16.005Z,76.80
2023-01-07T05:51:17.876Z,76.80
2023-01-07T05:54:19.719Z,76.30
2023-01-07T05:57:21.716Z,75.90
2023-01-07T06:00:23.607Z,75.70
2023-01-07T06:03:25.568Z,75.80
2023-01-07T06:06:27.421Z,75.30
2023-01-07T06:09:29.336Z,75.40
2023-01-07T06:12:31.495Z,75.50
2023-01-07T06:15:33.487Z,75.30
2023-01-07T06:18:36.482Z,75.20
2023-01-07T06:21:38.988Z,75.40
2023-01-07T06:24:41.028Z,74.60
2023-01-07T06:27:43.122Z,74.50
2023-01-07T06:30:46.076Z,74.50
2023-01-07T06:33:47.993Z,74.00
2023-01-07T06:36:49.977Z,74.40
2023-01-07T06:39:51.936Z,73.80
2023-01-07T06:42:54.084Z,73.50
2023-01-07T06:45:56.137Z,73.80
2023-01-07T06:48:58.213Z,74.40
2023-01-07T06:52:02.326Z,74.60
2023-01-07T06:55:04.947Z,73.80
2023-01-07T06:58:06.699Z,74.00
2023-01-07T07:01:09.049Z,73.60
2023-01-07T07:04:11.088Z,73.30
2023-01-07T07:07:13.187Z,73.30
2023-01-07T07:10:15.820Z,73.10
2023-01-07T07:13:20.523Z,72.80
2023-01-07T07:16:25.006Z,72.60
2023-01-07T07:19:26.996Z,72.90
2023-01-07T07:22:28.996Z,72.80
2023-01-07T07:25:30.895Z,72.10
2023-01-07T07:28:32.713Z,72.10
2023-01-07T07:31:34.664Z,72.40
2023-01-07T07:34:37.201Z,72.50
2023-01-07T07:37:39.435Z,72.00
2023-01-07T07:40:41.284Z,71.70
2023-01-07T07:43:43.141Z,71.70
2023-01-07T07:46:45.104Z,71.40
2023-01-07T07:49:46.973Z,71.60
2023-01-07T07:52:48.851Z,71.80
2023-01-07T07:55:50.684Z,71.80
2023-01-07T07:58:52.560Z,71.70
2023-01-07T08:01:54.482Z,71.60
2023-01-07T08:04:56.386Z,71.10
2023-01-07T08:07:58.410Z,71.80
2023-01-07T08:11:03.627Z,71.80
2023-01-07T08:14:05.591Z,71.80
2023-01-07T08:17:07.507Z,71.90
2023-01-07T08:20:10.406Z,71.90
2023-01-07T08:23:12.349Z,71.60
2023-01-07T08:26:14.329Z,71.50
2023-01-07T08:29:16.269Z,71.20
2023-01-07T08:32:18.488Z,71.20
2023-01-07T08:35:21.301Z,71.10
2023-01-07T08:38:23.308Z,71.00
2023-01-07T08:41:25.546Z,70.30
2023-01-07T08:44:27.420Z,69.90
2023-01-07T08:47:29.472Z,70.20
2023-01-07T08:50:33.296Z,70.00
2023-01-07T08:53:35.315Z,70.20
2023-01-07T08:56:37.214Z,69.70
2023-01-07T08:59:39.219Z,69.70
2023-01-07T09:02:41.423Z,69.40
2023-01-07T09:05:43.509Z,69.20
2023-01-07T09:08:46.073Z,69.20
2023-01-07T09:11:47.954Z,69.10
2023-01-07T09:14:49.836Z,69.30
2023-01-07T09:17:51.815Z,68.90
2023-01-07T09:20:53.679Z,69.10
2023-01-07T09:23:55.870Z,69.00
2023-01-07T09:26:57.699Z,69.10
2023-01-07T09:29:59.643Z,69.10
2023-01-07T09:33:01.613Z,69.00
2023-01-07T09:36:03.695Z,69.20
2023-01-07T09:39:12.761Z,69.50
2023-01-07T09:42:48.037Z,69.30
2023-01-07T09:45:54.739Z,69.40
2023-01-07T09:49:02.211Z,69.20
2023-01-07T09:52:11.308Z,69.40
2023-01-07T09:55:24.292Z,69.00
2023-01-07T09:58:29.352Z,69.10
2023-01-07T10:01:47.679Z,69.20
2023-01-07T10:05:17.959Z,69.20
2023-01-07T10:09:02.646Z,68.90
2023-01-07T10:12:23.542Z,69.20
2023-01-07T10:15:37.998Z,69.10
2023-01-07T10:18:45.806Z,68.90
2023-01-07T10:22:00.255Z,68.70
2023-01-07T10:25:13.846Z,68.50
2023-01-07T10:28:25.630Z,68.50
2023-01-07T10:31:28.389Z,67.10
2023-01-07T10:34:36.929Z,66.50
2023-01-07T10:37:41.067Z,66.50
2023-01-07T10:40:55.117Z,67.10
2023-01-07T10:44:14.958Z,66.80
2023-01-07T10:47:42.103Z,66.10
2023-01-07T10:51:39.086Z,66.60
2023-01-07T10:55:25.347Z,66.40
2023-01-07T10:58:40.749Z,65.90
2023-01-07T11:01:49.005Z,65.10
2023-01-07T11:04:52.544Z,65.30
2023-01-07T11:07:58.699Z,65.00
2023-01-07T11:11:00.610Z,64.70
2023-01-07T11:14:06.911Z,65.20
2023-01-07T11:17:31.770Z,63.40
2023-01-07T11:23:57.927Z,63.60
2023-01-07T11:27:04.461Z,63.00
2023-01-07T11:30:25.225Z,63.20
2023-01-07T11:34:02.840Z,62.90
2023-01-07T11:37:06.128Z,61.20
2023-01-07T11:40:14.289Z,60.90
2023-01-07T11:43:16.251Z,60.00
2023-01-07T11:46:22.367Z,59.00
2023-01-07T11:49:31.600Z,58.00
2023-01-07T12:06:38.106Z,56.10
2023-01-07T12:09:42.047Z,56.30
2023-01-07T12:12:44.725Z,57.10
2023-01-07T12:16:02.684Z,56.30
2023-01-07T12:19:18.279Z,57.10
2023-01-07T12:22:58.543Z,56.40
2023-01-07T12:26:32.191Z,55.40
2023-01-07T12:29:53.200Z,56.40
2023-01-07T12:33:34.633Z,56.80
2023-01-07T12:36:40.872Z,56.70
2023-01-07T12:39:45.247Z,57.00
2023-01-07T12:42:57.772Z,56.90
2023-01-07T12:46:02.472Z,57.80
2023-01-07T12:49:15.365Z,57.00
2023-01-07T12:53:01.910Z,56.30
2023-01-07T12:56:11.549Z,57.10
2023-01-07T12:59:46.518Z,57.40
2023-01-07T13:03:06.992Z,57.60
2023-01-07T13:06:21.034Z,58.70
2023-01-07T13:09:41.733Z,57.90
2023-01-07T13:12:44.267Z,57.70
2023-01-07T13:15:49.248Z,57.20
2023-01-07T13:18:51.131Z,58.00
2023-01-07T13:21:59.421Z,58.70
2023-01-07T13:25:11.828Z,57.60
2023-01-07T13:28:31.087Z,58.30
2023-01-07T13:31:51.784Z,57.90
2023-01-07T13:35:21.483Z,57.60
2023-01-07T13:38:59.280Z,58.00
2023-01-07T13:42:15.557Z,59.10
2023-01-07T13:45:33.645Z,58.50
2023-01-07T13:48:35.736Z,59.60
2023-01-07T13:51:38.583Z,60.40
2023-01-07T13:54:53.908Z,59.60
2023-01-07T13:57:58.716Z,60.90
2023-01-07T14:01:12.539Z,60.50
2023-01-07T14:04:46.883Z,60.60
2023-01-07T14:07:51.795Z,60.50
2023-01-07T14:10:54.142Z,60.80
2023-01-07T14:14:03.291Z,61.40
2023-01-07T14:17:43.604Z,61.30
2023-01-07T14:20:55.713Z,61.60
2023-01-07T14:24:30.714Z,61.60
2023-01-07T14:27:43.959Z,61.70
2023-01-07T14:30:51.200Z,61.60
2023-01-07T14:34:00.222Z,61.10
2023-01-07T14:37:02.032Z,61.20
2023-01-07T14:40:25.752Z,60.90
2023-01-07T14:43:42.763Z,61.90
2023-01-07T14:46:48.777Z,62.10
2023-01-07T14:50:17.881Z,61.10
2023-01-07T14:53:38.713Z,61.40
2023-01-07T14:57:11.826Z,60.70
2023-01-07T15:00:22.833Z,61.30
2023-01-07T15:03:43.223Z,61.40
2023-01-07T15:06:46.096Z,61.50
2023-01-07T15:09:53.724Z,61.40
2023-01-07T15:12:58.510Z,61.40
2023-01-07T15:16:02.438Z,61.60
2023-01-07T15:19:04.421Z,61.80
2023-01-07T15:22:12.834Z,61.90
2023-01-07T15:25:27.312Z,61.90
2023-01-07T15:28:36.109Z,62.20
2023-01-07T15:32:08.531Z,62.40
2023-01-07T15:35:34.156Z,62.80
2023-01-07T15:38:51.234Z,63.30
2023-01-07T15:41:55.056Z,63.30
2023-01-07T15:44:58.994Z,63.50
2023-01-07T15:48:12.336Z,63.70
2023-01-07T15:51:16.359Z,64.60
2023-01-07T15:54:33.249Z,67.30
2023-01-07T15:57:41.529Z,68.70
2023-01-07T16:00:43.991Z,69.30
2023-01-07T16:03:48.548Z,70.50
2023-01-07T16:06:56.423Z,71.40
2023-01-07T16:09:58.866Z,72.00
2023-01-07T16:13:17.506Z,72.30
2023-01-07T16:16:19.491Z,72.80
2023-01-07T16:19:21.543Z,73.30
2023-01-07T16:22:24.807Z,73.60
2023-01-07T16:25:34.938Z,73.50
2023-01-07T16:28:59.646Z,73.90
2023-01-07T16:32:02.238Z,74.70
2023-01-07T16:35:14.991Z,75.00
2023-01-07T16:38:20.255Z,75.30
2023-01-07T16:41:28.830Z,75.80
2023-01-07T16:44:43.111Z,75.70
2023-01-07T16:48:19.363Z,75.50
2023-01-07T16:51:52.768Z,74.80
2023-01-07T16:54:54.564Z,74.50
2023-01-07T16:57:58.884Z,74.90
2023-01-07T17:01:02.590Z,74.90
2023-01-07T17:04:09.409Z,75.50
2023-01-07T17:07:24.691Z,75.70
2023-01-07T17:10:32.634Z,76.00
2023-01-07T17:13:37.863Z,76.20
2023-01-07T17:16:40.892Z,76.30
2023-01-07T17:19:49.977Z,75.60
2023-01-07T17:22:51.880Z,75.30
2023-01-07T17:26:09.135Z,75.80
2023-01-07T17:29:12.092Z,76.30
2023-01-07T17:32:14.543Z,75.90
2023-01-07T17:35:20.145Z,76.60
2023-01-07T17:38:22.078Z,77.70
2023-01-07T17:41:24.333Z,77.60
2023-01-07T17:44:26.341Z,77.30
2023-01-07T17:47:28.327Z,77.20
2023-01-07T17:50:37.878Z,77.30
2023-01-07T17:53:44.660Z,77.50
2023-01-07T17:56:46.940Z,77.20
2023-01-07T17:59:51.734Z,78.40
2023-01-07T18:02:54.128Z,77.80
2023-01-07T18:05:56.222Z,78.00
2023-01-07T18:09:04.655Z,77.50
2023-01-07T18:12:06.772Z,77.40
2023-01-07T18:15:27.318Z,77.40
2023-01-07T18:18:31.502Z,77.50
2023-01-07T18:21:33.367Z,77.30
2023-01-07T18:24:35.315Z,76.40
2023-01-07T18:27:37.191Z,76.20
2023-01-07T18:30:39.696Z,75.90
2023-01-07T18:33:42.277Z,75.90
2023-01-07T18:36:46.664Z,75.70
2023-01-07T18:39:48.854Z,76.30
2023-01-07T18:42:53.348Z,76.50
2023-01-07T18:45:55.486Z,76.20
2023-01-07T18:48:57.393Z,76.10
2023-01-07T18:51:59.348Z,76.10
2023-01-07T18:55:01.263Z,75.90
2023-01-07T18:58:03.886Z,75.70
2023-01-07T19:01:07.305Z,75.70
2023-01-07T19:07:17.902Z,75.60
2023-01-07T19:10:19.790Z,75.80
2023-01-07T19:13:22.387Z,75.70
2023-01-07T19:16:24.360Z,75.80
2023-01-07T19:19:27.435Z,75.60
2023-01-07T19:22:29.388Z,75.60
2023-01-07T19:25:31.639Z,75.50
2023-01-07T19:28:33.553Z,75.50
2023-01-07T19:31:35.790Z,75.30
2023-01-07T19:34:37.678Z,75.90
2023-01-07T19:37:39.908Z,75.80
2023-01-07T19:40:43.469Z,75.70
2023-01-07T19:43:46.662Z,76.00
2023-01-07T19:46:48.726Z,75.80
2023-01-07T19:49:50.655Z,75.60
2023-01-07T19:52:52.579Z,75.70
2023-01-07T19:56:02.314Z,75.60
2023-01-07T19:59:04.311Z,75.70
2023-01-07T20:02:13.496Z,76.50
2023-01-07T20:05:15.570Z,78.10
2023-01-07T20:08:17.481Z,78.80
2023-01-07T20:11:19.653Z,79.00
2023-01-07T20:14:21.512Z,78.60
2023-01-07T20:17:23.405Z,78.10
2023-01-07T20:20:25.515Z,77.50
2023-01-07T20:23:27.827Z,78.20
2023-01-07T20:26:31.700Z,78.00
2023-01-07T20:29:33.569Z,78.20
2023-01-07T20:32:35.516Z,78.10
2023-01-07T20:35:43.747Z,78.30
2023-01-07T20:38:46.505Z,78.00
2023-01-07T20:41:48.345Z,78.30
2023-01-07T20:44:51.406Z,78.20
2023-01-07T20:47:53.408Z,78.50
2023-01-07T20:50:57.204Z,78.00
2023-01-07T20:53:59.120Z,78.40
2023-01-07T20:57:01.036Z,78.60
2023-01-07T21:00:03.119Z,78.30
2023-01-07T21:03:06.501Z,77.90
2023-01-07T21:06:10.201Z,78.10
2023-01-07T21:09:12.233Z,79.00
2023-01-07T21:12:14.114Z,79.30
2023-01-07T21:15:16.860Z,79.30
2023-01-07T21:18:19.263Z,79.50
2023-01-07T21:21:22.595Z,79.00
2023-01-07T21:24:24.502Z,79.50
2023-01-07T21:27:26.447Z,79.50
2023-01-07T21:30:28.913Z,78.50
2023-01-07T21:33:30.849Z,78.80
2023-01-07T21:36:32.730Z,78.90
2023-01-07T21:39:34.683Z,78.50
2023-01-07T21:42:42.692Z,79.00
2023-01-07T21:45:44.657Z,79.10
2023-01-07T21:48:47.203Z,79.20
2023-01-07T21:51:49.888Z,79.30
2023-01-07T21:54:51.747Z,79.40
2023-01-07T21:57:53.671Z,78.90
2023-01-07T22:00:55.951Z,78.80
2023-01-07T22:03:59.302Z,79.00
2023-01-07T22:07:01.323Z,78.90
2023-01-07T22:10:03.610Z,78.60
2023-01-07T22:13:11.928Z,78.40
2023-01-07T22:16:14.049Z,78.30
2023-01-07T22:19:16.104Z,78.00
2023-01-07T22:22:17.954Z,77.60
2023-01-07T22:25:20.076Z,78.20
2023-01-07T22:28:23.623Z,78.10
2023-01-07T22:31:28.470Z,78.10
2023-01-07T22:34:30.364Z,77.90
2023-01-07T22:37:32.455Z,77.80
2023-01-07T22:40:36.650Z,79.70
2023-01-07T22:43:39.158Z,79.70
2023-01-07T22:46:45.012Z,79.40
2023-01-07T22:49:48.341Z,79.50
2023-01-07T22:52:53.148Z,79.50
2023-01-07T22:55:55.177Z,80.80
2023-01-07T22:58:57.185Z,80.90
2023-01-07T23:01:59.098Z,80.10
2023-01-07T23:05:00.986Z,80.10
2023-01-07T23:08:03.169Z,81.70
2023-01-07T23:11:06.009Z,80.60
2023-01-07T23:14:07.966Z,80.80
2023-01-07T23:17:09.912Z,80.20
2023-01-07T23:20:11.986Z,80.50
2023-01-07T23:23:14.106Z,80.80
2023-01-07T23:26:16.236Z,81.10
2023-01-07T23:29:18.877Z,81.40
2023-01-07T23:32:20.802Z,81.70
2023-01-07T23:35:22.648Z,81.70
2023-01-07T23:38:24.693Z,81.70
2023-01-07T23:41:27.013Z,81.30
2023-01-07T23:44:29.387Z,81.50
2023-01-07T23:47:31.254Z,81.90
2023-01-07T23:50:33.346Z,82.40
2023-01-07T23:53:35.896Z,82.10
2023-01-07T23:56:37.769Z,82.60
2023-01-07T23:59:39.595Z,82.50
